Time;durP1;ratioP1;P1;durP2;ratioP2;P2;SDS_P1;SDS_P2;PMS_P1;PMS_P2;Temp;Humidity;BMP_temperature;BMP_pressure;BME280_temperature;BME280_humidity;BME280_pressure;Samples;Min_cycle;Max_cycle;Signal;HPM_P1;HPM_P2
2021/12/28 00:01:17;;;;;;;31.23;22.95;;;2.90;90.10;;;;;;5095660;28;20044;-44
2021/12/28 00:03:45;;;;;;;30.08;21.63;;;2.90;90.10;;;;;;5077991;28;20051;-45
2021/12/28 00:06:14;;;;;;;29.55;21.15;;;2.90;90.10;;;;;;5095487;28;20028;-46
2021/12/28 00:08:42;;;;;;;27.42;21.20;;;2.90;90.10;;;;;;5086630;28;20032;-45
2021/12/28 00:11:11;;;;;;;28.10;20.10;;;2.90;90.10;;;;;;5092660;28;20016;-46
2021/12/28 00:13:41;;;;;;;29.73;21.98;;;3.00;90.00;;;;;;5109333;28;20025;-46
2021/12/28 00:18:35;;;;;;;29.00;20.33;;;2.90;90.00;;;;;;5115415;28;20036;-46
2021/12/28 00:21:04;;;;;;;28.92;19.38;;;2.90;90.00;;;;;;5112231;28;20586;-43
2021/12/28 00:23:38;;;;;;;28.20;20.27;;;2.90;90.20;;;;;;5096895;28;20040;-44
2021/12/28 00:26:16;;;;;;;28.05;21.40;;;2.90;90.20;;;;;;5095168;28;20463;-46
2021/12/28 00:28:44;;;;;;;30.95;21.45;;;2.90;90.30;;;;;;5102864;28;20349;-48
2021/12/28 00:31:13;;;;;;;27.92;20.83;;;2.90;90.30;;;;;;5100605;28;20090;-45
2021/12/28 00:33:40;;;;;;;28.50;21.23;;;2.90;90.30;;;;;;5115050;28;20028;-47
2021/12/28 00:36:07;;;;;;;28.33;20.48;;;2.90;90.30;;;;;;5097408;28;20261;-48
2021/12/28 00:38:35;;;;;;;31.15;22.02;;;2.90;90.40;;;;;;5104686;28;20484;-45
2021/12/28 00:41:05;;;;;;;28.88;19.77;;;2.90;90.50;;;;;;5110301;28;20027;-50
2021/12/28 00:43:36;;;;;;;28.63;21.70;;;2.90;90.40;;;;;;5093821;28;20043;-44
2021/12/28 00:46:05;;;;;;;29.52;22.88;;;2.90;90.50;;;;;;5087528;28;20027;-48
2021/12/28 00:48:34;;;;;;;29.00;20.75;;;2.90;90.50;;;;;;5080024;28;20023;-48
2021/12/28 00:51:01;;;;;;;27.92;21.63;;;3.00;90.50;;;;;;5114613;28;20035;-47
2021/12/28 00:53:28;;;;;;;31.17;22.15;;;3.00;90.60;;;;;;5113585;28;20074;-44
2021/12/28 00:55:59;;;;;;;30.70;22.20;;;3.00;90.40;;;;;;5114017;28;20531;-43
2021/12/28 00:58:26;;;;;;;31.13;22.63;;;3.00;90.50;;;;;;5094738;28;20036;-47
2021/12/28 01:00:55;;;;;;;28.38;20.63;;;3.00;90.30;;;;;;5114417;28;20075;-46
2021/12/28 01:03:21;;;;;;;29.02;20.83;;;3.00;90.40;;;;;;5101768;28;20484;-45
2021/12/28 01:05:49;;;;;;;28.40;21.40;;;2.90;90.40;;;;;;5076407;28;20052;-43
2021/12/28 01:08:16;;;;;;;29.73;21.23;;;2.90;90.50;;;;;;5111113;28;20397;-46
2021/12/28 01:10:57;;;;;;;29.30;21.33;;;3.00;90.60;;;;;;5114768;27;20062;-48
2021/12/28 01:13:25;;;;;;;30.48;21.30;;;3.00;90.60;;;;;;5110537;28;20437;-45
2021/12/28 01:15:59;;;;;;;29.55;21.00;;;3.00;90.60;;;;;;5076241;28;20499;-49
2021/12/28 01:18:25;;;;;;;27.63;20.52;;;3.00;90.60;;;;;;5105851;28;20487;-48
2021/12/28 01:20:52;;;;;;;25.38;20.23;;;3.00;90.60;;;;;;5116084;27;20102;-46
2021/12/28 01:23:19;;;;;;;28.30;20.52;;;3.00;90.60;;;;;;5124730;27;20441;-49
2021/12/28 01:25:45;;;;;;;30.67;21.88;;;3.00;90.60;;;;;;5114392;28;20111;-48
2021/12/28 01:28:13;;;;;;;30.17;22.17;;;3.00;90.60;;;;;;5088873;28;20127;-47
2021/12/28 01:30:43;;;;;;;29.02;22.08;;;3.00;90.60;;;;;;5077550;28;20452;-45
2021/12/28 01:33:10;;;;;;;27.27;21.15;;;3.00;90.50;;;;;;5108558;28;20036;-45
2021/12/28 01:35:38;;;;;;;24.73;18.38;;;3.00;90.60;;;;;;5094495;28;20036;-49
2021/12/28 01:38:04;;;;;;;30.08;21.30;;;3.00;90.60;;;;;;5103053;28;20356;-46
2021/12/28 01:40:35;;;;;;;26.77;20.15;;;3.00;90.70;;;;;;5098279;28;20024;-44
2021/12/28 01:43:11;;;;;;;30.35;22.20;;;3.00;90.60;;;;;;5096054;28;20088;-46
2021/12/28 01:45:57;;;;;;;32.35;19.75;;;3.00;90.70;;;;;;5093703;28;20039;-47
2021/12/28 01:48:42;;;;;;;27.15;20.95;;;3.20;90.70;;;;;;5109545;28;20448;-43
2021/12/28 01:51:16;;;;;;;24.95;19.05;;;3.10;90.50;;;;;;5096089;28;20062;-44
2021/12/28 01:53:46;;;;;;;26.98;21.67;;;3.20;90.60;;;;;;5106685;28;20023;-45
2021/12/28 01:56:17;;;;;;;;;;;3.20;90.60;;;;;;5114829;28;20030;-44
2021/12/28 01:58:47;;;;;;;27.10;18.77;;;3.20;90.60;;;;;;5087257;28;19941;-43
2021/12/28 02:01:14;;;;;;;30.13;21.48;;;3.20;90.60;;;;;;5093563;28;20472;-45
2021/12/28 02:03:41;;;;;;;26.10;20.63;;;3.20;90.60;;;;;;5102011;28;20052;-45
2021/12/28 02:06:09;;;;;;;28.42;20.20;;;3.20;90.70;;;;;;5093434;28;20028;-45
2021/12/28 02:08:42;;;;;;;26.05;20.77;;;3.30;90.70;;;;;;5098093;28;20024;-48
2021/12/28 02:11:11;;;;;;;28.35;21.05;;;3.30;90.80;;;;;;5107430;28;20028;-44
2021/12/28 02:13:39;;;;;;;30.27;22.13;;;3.40;90.80;;;;;;5111718;28;20019;-44
2021/12/28 02:16:06;;;;;;;26.73;20.63;;;3.40;90.70;;;;;;5113631;28;20046;-45
2021/12/28 02:18:36;;;;;;;26.15;20.13;;;3.40;90.70;;;;;;5098758;28;20404;-45
2021/12/28 02:21:09;;;;;;;28.33;20.98;;;3.40;90.70;;;;;;5076967;28;20028;-45
2021/12/28 02:23:36;;;;;;;28.88;21.95;;;3.40;90.60;;;;;;5108757;28;20052;-50
2021/12/28 02:26:04;;;;;;;31.48;21.35;;;3.40;90.70;;;;;;5075542;28;20115;-55
2021/12/28 02:28:36;;;;;;;28.80;20.58;;;3.40;90.80;;;;;;5095992;28;20075;-58
2021/12/28 02:31:03;;;;;;;27.63;20.52;;;3.40;90.90;;;;;;5113710;28;20055;-60
2021/12/28 02:33:30;;;;;;;27.77;20.75;;;3.40;91.00;;;;;;5090615;28;20571;-60
2021/12/28 02:36:00;;;;;;;24.77;19.17;;;3.40;91.00;;;;;;5094420;28;20536;-60
2021/12/28 02:38:29;;;;;;;29.13;21.00;;;3.40;91.20;;;;;;5080312;28;20115;-58
2021/12/28 02:40:57;;;;;;;30.60;22.73;;;3.40;91.20;;;;;;5111744;28;20032;-57
2021/12/28 02:43:24;;;;;;;27.38;21.05;;;3.40;91.20;;;;;;5104806;28;20051;-59
2021/12/28 02:45:54;;;;;;;29.08;21.17;;;3.30;91.30;;;;;;5099605;28;20032;-58
2021/12/28 02:48:22;;;;;;;29.85;20.65;;;3.40;91.50;;;;;;5089974;28;20051;-59
2021/12/28 02:50:54;;;;;;;28.88;21.13;;;3.40;91.50;;;;;;5105959;28;20528;-58
2021/12/28 02:53:25;;;;;;;31.80;21.60;;;3.40;91.50;;;;;;5076335;28;20036;-57
2021/12/28 02:55:53;;;;;;;25.65;20.20;;;3.40;91.60;;;;;;5095286;28;20042;-59
2021/12/28 02:58:33;;;;;;;29.20;22.00;;;3.40;91.60;;;;;;5102066;28;20059;-58
2021/12/28 03:01:13;;;;;;;28.50;21.42;;;3.40;91.60;;;;;;5097551;28;20019;-59
2021/12/28 03:03:43;;;;;;;26.05;19.95;;;3.40;91.70;;;;;;5091879;28;20036;-60
2021/12/28 03:06:14;;;;;;;30.95;21.35;;;3.40;91.80;;;;;;5098146;28;20028;-60
2021/12/28 03:08:43;;;;;;;29.17;22.30;;;3.40;91.80;;;;;;5093036;28;20032;-60
2021/12/28 03:11:14;;;;;;;31.20;21.13;;;3.40;91.80;;;;;;5094506;28;20491;-60
2021/12/28 03:13:45;;;;;;;31.67;22.83;;;3.40;91.80;;;;;;5099827;28;20161;-60
2021/12/28 03:16:13;;;;;;;28.50;21.13;;;3.40;91.90;;;;;;5079017;28;20475;-57
2021/12/28 03:18:41;;;;;;;32.35;22.73;;;3.40;92.00;;;;;;5110058;28;20093;-57
2021/12/28 03:21:09;;;;;;;29.67;23.30;;;3.50;91.90;;;;;;5113428;28;20106;-58
2021/12/28 03:23:37;;;;;;;30.00;23.52;;;3.40;92.00;;;;;;5116109;28;20064;-56
2021/12/28 03:26:06;;;;;;;30.50;22.15;;;3.50;92.00;;;;;;5098747;28;20577;-55
2021/12/28 03:28:35;;;;;;;33.72;24.65;;;3.50;92.00;;;;;;5106818;28;20031;-55
2021/12/28 03:31:03;;;;;;;33.10;23.10;;;3.50;92.00;;;;;;5110412;28;20027;-54
2021/12/28 03:33:33;;;;;;;32.65;22.77;;;3.50;92.10;;;;;;5105078;28;20102;-56
2021/12/28 03:36:01;;;;;;;30.80;22.92;;;3.50;92.10;;;;;;5097705;28;20545;-54
2021/12/28 03:38:28;;;;;;;31.67;22.98;;;3.50;92.10;;;;;;5108975;28;20058;-55
2021/12/28 03:40:54;;;;;;;32.33;22.77;;;3.50;92.20;;;;;;5114678;28;20071;-50
2021/12/28 03:43:22;;;;;;;32.33;23.90;;;3.50;92.20;;;;;;5086697;28;20056;-54
2021/12/28 03:45:50;;;;;;;35.38;24.83;;;3.50;92.20;;;;;;5115331;28;20031;-55
2021/12/28 03:48:17;;;;;;;34.55;24.77;;;3.50;92.20;;;;;;5105448;28;20439;-50
2021/12/28 03:50:44;;;;;;;33.63;23.80;;;3.50;92.20;;;;;;5102460;28;20426;-51
2021/12/28 03:53:11;;;;;;;31.65;22.58;;;3.50;92.30;;;;;;5098082;28;20028;-49
2021/12/28 03:55:37;;;;;;;34.50;24.15;;;3.50;92.20;;;;;;5090281;28;20035;-51
2021/12/28 03:58:07;;;;;;;33.22;23.75;;;3.50;92.30;;;;;;5097565;28;20040;-53
2021/12/28 04:00:40;;;;;;;;;;;3.50;92.30;;;;;;5116555;28;20032;-51
2021/12/28 04:03:09;;;;;;;33.83;23.05;;;3.50;92.30;;;;;;5107010;28;20364;-50
2021/12/28 04:05:39;;;;;;;35.15;23.48;;;3.50;92.30;;;;;;5110741;28;20095;-52
2021/12/28 04:08:06;;;;;;;34.97;24.75;;;3.50;92.40;;;;;;5093681;28;20038;-53
2021/12/28 04:10:48;;;;;;;30.35;22.20;;;3.50;92.30;;;;;;5099165;27;20081;-47
2021/12/28 04:13:17;;;;;;;32.35;23.50;;;3.50;92.30;;;;;;5118425;27;20098;-48
2021/12/28 04:15:46;;;;;;;36.10;24.52;;;3.50;92.30;;;;;;5097268;28;20093;-50
2021/12/28 04:18:15;;;;;;;33.28;23.30;;;3.50;92.30;;;;;;5102880;28;20031;-47
2021/12/28 04:20:41;;;;;;;33.90;24.38;;;3.50;92.30;;;;;;5112406;27;20456;-48
2021/12/28 04:23:09;;;;;;;34.45;22.70;;;3.50;92.40;;;;;;5117159;27;20432;-52
2021/12/28 04:25:39;;;;;;;33.63;24.02;;;3.50;92.40;;;;;;5114297;28;20050;-49
2021/12/28 04:28:06;;;;;;;;;;;3.50;92.40;;;;;;5094129;28;20028;-51
2021/12/28 04:30:32;;;;;;;33.67;24.00;;;3.50;92.50;;;;;;5111761;28;19912;-53
2021/12/28 04:32:59;;;;;;;35.55;23.77;;;3.50;92.40;;;;;;5114700;28;20058;-51
2021/12/28 04:35:26;;;;;;;36.60;24.58;;;3.50;92.40;;;;;;5096013;28;20039;-48
2021/12/28 04:37:53;;;;;;;33.63;24.38;;;3.50;92.40;;;;;;5091388;28;20028;-46
2021/12/28 04:40:22;;;;;;;33.20;24.00;;;3.50;92.50;;;;;;5095286;28;20075;-49
2021/12/28 04:42:52;;;;;;;38.00;25.42;;;3.50;92.50;;;;;;5114279;28;20050;-51
2021/12/28 04:45:19;;;;;;;;;;;3.50;92.50;;;;;;5094403;28;20065;-49
2021/12/28 04:47:46;;;;;;;35.97;23.10;;;3.60;92.60;;;;;;5080197;28;19912;-47
2021/12/28 04:50:14;;;;;;;38.92;24.75;;;3.60;92.50;;;;;;5114337;28;20036;-48
2021/12/28 04:52:42;;;;;;;38.28;25.17;;;3.60;92.50;;;;;;5112193;28;20034;-46
2021/12/28 04:55:13;;;;;;;38.30;25.80;;;3.60;92.60;;;;;;5098824;28;20059;-47
2021/12/28 04:57:41;;;;;;;39.08;23.83;;;3.60;92.60;;;;;;5099815;28;20080;-46
2021/12/28 05:00:14;;;;;;;42.15;26.67;;;3.60;92.60;;;;;;5115209;28;20029;-50
2021/12/28 05:02:44;;;;;;;33.08;23.67;;;3.60;92.50;;;;;;5114344;28;20023;-48
2021/12/28 05:05:12;;;;;;;38.47;26.40;;;3.60;92.50;;;;;;5101834;28;20056;-47
2021/12/28 05:07:39;;;;;;;35.15;24.73;;;3.60;92.60;;;;;;5099078;28;20031;-48
2021/12/28 05:10:07;;;;;;;36.50;27.08;;;3.60;92.50;;;;;;5101524;27;20028;-46
2021/12/28 05:12:34;;;;;;;36.63;25.23;;;3.60;92.60;;;;;;5113231;28;20032;-46
2021/12/28 05:15:01;;;;;;;38.25;26.75;;;3.60;92.60;;;;;;5095358;28;20043;-44
2021/12/28 05:17:28;;;;;;;37.70;26.15;;;3.70;92.60;;;;;;5094242;28;20024;-45
2021/12/28 05:19:55;;;;;;;40.97;27.92;;;3.60;92.60;;;;;;5100664;28;20444;-48
2021/12/28 05:22:21;;;;;;;41.75;27.23;;;3.60;92.60;;;;;;5116347;27;20069;-46
2021/12/28 05:24:48;;;;;;;35.78;25.02;;;3.60;92.60;;;;;;5104478;28;20040;-47
2021/12/28 05:27:15;;;;;;;36.63;25.20;;;3.50;92.60;;;;;;5094062;28;20084;-49
2021/12/28 05:29:46;;;;;;;34.97;24.92;;;3.60;92.70;;;;;;5112824;28;20080;-44
2021/12/28 05:32:13;;;;;;;37.88;25.20;;;3.60;92.60;;;;;;5112110;28;20081;-45
2021/12/28 05:34:40;;;;;;;38.78;26.33;;;3.50;92.60;;;;;;5093846;28;20063;-45
2021/12/28 05:37:07;;;;;;;36.50;24.98;;;3.50;92.70;;;;;;5094157;28;20062;-49
2021/12/28 05:39:34;;;;;;;36.80;26.33;;;3.50;92.70;;;;;;5094414;28;20031;-46
2021/12/28 05:42:02;;;;;;;38.53;26.58;;;3.50;92.70;;;;;;5100270;28;20357;-48
2021/12/28 05:44:30;;;;;;;36.40;25.00;;;3.50;92.60;;;;;;5094082;28;20063;-49
2021/12/28 05:46:57;;;;;;;38.47;24.98;;;3.50;92.70;;;;;;5098743;28;20039;-49
2021/12/28 05:49:24;;;;;;;35.83;24.60;;;3.50;92.60;;;;;;5090943;28;20083;-50
2021/12/28 05:51:51;;;;;;;40.60;26.48;;;3.50;92.70;;;;;;5109219;28;20052;-50
2021/12/28 05:54:18;;;;;;;36.00;27.05;;;3.60;92.80;;;;;;5093329;28;20024;-47
2021/12/28 05:56:48;;;;;;;40.10;26.73;;;3.60;92.80;;;;;;5109412;28;20084;-44
2021/12/28 05:59:15;;;;;;;38.17;26.23;;;3.60;92.80;;;;;;5098925;28;20039;-45
2021/12/28 06:01:48;;;;;;;40.35;26.55;;;3.60;92.80;;;;;;5107445;28;20107;-45
2021/12/28 06:04:17;;;;;;;39.75;27.90;;;3.60;92.70;;;;;;5112920;28;20521;-45
2021/12/28 06:06:44;;;;;;;36.33;25.90;;;3.50;92.70;;;;;;5110520;28;20040;-45
2021/12/28 06:09:11;;;;;;;40.42;26.77;;;3.50;92.70;;;;;;5098925;28;20043;-49
2021/12/28 06:11:38;;;;;;;34.55;24.55;;;3.50;92.60;;;;;;5102477;28;20365;-46
2021/12/28 06:14:06;;;;;;;36.08;25.33;;;3.40;92.60;;;;;;5089911;28;20042;-50
2021/12/28 06:16:37;;;;;;;40.45;27.20;;;3.40;92.60;;;;;;5109406;28;20031;-46
2021/12/28 06:19:05;;;;;;;39.70;26.02;;;3.40;92.60;;;;;;5093496;28;20058;-48
2021/12/28 06:21:35;;;;;;;34.03;23.05;;;3.40;92.60;;;;;;5088249;28;20108;-47
2021/12/28 06:24:03;;;;;;;36.65;25.52;;;3.40;92.70;;;;;;5100022;28;20689;-47
2021/12/28 06:26:34;;;;;;;39.00;26.77;;;3.40;92.70;;;;;;5111896;28;20031;-48
2021/12/28 06:29:02;;;;;;;37.63;25.80;;;3.40;92.70;;;;;;5113052;28;20032;-48
2021/12/28 06:31:28;;;;;;;39.95;26.02;;;3.30;92.70;;;;;;5111089;28;20016;-45
2021/12/28 06:34:00;;;;;;;36.80;26.92;;;3.40;92.80;;;;;;5109107;28;20699;-49
2021/12/28 06:36:27;;;;;;;42.78;27.30;;;3.40;92.80;;;;;;5106295;28;20034;-46
2021/12/28 06:38:54;;;;;;;37.78;25.88;;;3.40;92.80;;;;;;5102275;28;20471;-48
2021/12/28 06:41:22;;;;;;;41.53;25.60;;;3.40;92.80;;;;;;5117022;28;20114;-44
2021/12/28 06:43:48;;;;;;;41.22;27.40;;;3.40;92.90;;;;;;5106982;28;20039;-50
2021/12/28 06:46:15;;;;;;;35.97;25.25;;;3.40;92.80;;;;;;5103744;28;20043;-45
2021/12/28 06:48:46;;;;;;;37.58;26.98;;;3.40;92.80;;;;;;5107061;28;20099;-46
2021/12/28 06:51:13;;;;;;;39.95;27.42;;;3.40;92.80;;;;;;5104998;28;20020;-46
2021/12/28 06:53:40;;;;;;;36.25;24.73;;;3.40;92.90;;;;;;5104749;28;20073;-48
2021/12/28 06:56:07;;;;;;;38.83;25.95;;;3.40;92.80;;;;;;5110933;28;20391;-49
2021/12/28 06:58:35;;;;;;;40.67;27.63;;;3.50;92.80;;;;;;5111810;28;20046;-45
2021/12/28 07:01:03;;;;;;;42.63;26.50;;;3.50;92.90;;;;;;5099832;28;20032;-47
2021/12/28 07:03:30;;;;;;;38.00;26.23;;;3.40;92.80;;;;;;5105201;28;20023;-46
2021/12/28 07:05:56;;;;;;;40.53;27.38;;;3.50;92.80;;;;;;5115147;28;20114;-49
2021/12/28 07:08:23;;;;;;;39.10;27.00;;;3.50;92.80;;;;;;5115761;28;20035;-46
2021/12/28 07:10:50;;;;;;;36.58;26.30;;;3.50;92.80;;;;;;5115077;28;20051;-45
2021/12/28 07:13:17;;;;;;;37.17;26.40;;;3.50;92.80;;;;;;5115101;28;20459;-49
2021/12/28 07:15:44;;;;;;;40.70;27.60;;;3.50;92.80;;;;;;5115886;28;20059;-48
2021/12/28 07:18:11;;;;;;;39.03;27.60;;;3.50;92.80;;;;;;5098649;28;20036;-47
2021/12/28 07:20:38;;;;;;;40.60;27.95;;;3.40;92.80;;;;;;5114940;28;20531;-47
2021/12/28 07:23:07;;;;;;;37.03;26.17;;;3.50;92.80;;;;;;5097630;28;20031;-49
2021/12/28 07:25:34;;;;;;;39.33;25.75;;;3.50;92.70;;;;;;5095167;28;20020;-50
2021/12/28 07:28:00;;;;;;;36.83;24.60;;;3.40;92.70;;;;;;5097752;28;20023;-48
2021/12/28 07:30:27;;;;;;;37.15;26.88;;;3.40;92.70;;;;;;5097776;28;20027;-48
2021/12/28 07:32:54;;;;;;;39.17;26.08;;;3.40;92.70;;;;;;5100115;28;20071;-45
2021/12/28 07:35:21;;;;;;;38.42;26.10;;;3.40;92.70;;;;;;5099967;28;20028;-46
2021/12/28 07:37:47;;;;;;;38.33;25.67;;;3.40;92.70;;;;;;5101839;28;20118;-44
2021/12/28 07:40:17;;;;;;;37.15;25.70;;;3.40;92.70;;;;;;5116412;28;20032;-46
2021/12/28 07:42:44;;;;;;;41.35;25.73;;;3.40;92.70;;;;;;5114110;28;20062;-46
2021/12/28 07:45:15;;;;;;;36.65;24.85;;;3.40;92.70;;;;;;5107192;28;20354;-48
2021/12/28 07:47:43;;;;;;;36.95;25.52;;;3.40;92.70;;;;;;5096492;28;20510;-45
2021/12/28 07:50:12;;;;;;;34.97;24.85;;;3.40;92.80;;;;;;5096866;28;20501;-48
2021/12/28 07:52:39;;;;;;;37.05;25.17;;;3.40;92.80;;;;;;5108372;28;20089;-48
2021/12/28 07:55:07;;;;;;;40.63;26.58;;;3.40;92.80;;;;;;5111288;28;20034;-45
2021/12/28 07:57:35;;;;;;;34.72;25.50;;;3.40;92.80;;;;;;5112486;28;20028;-47
2021/12/28 08:00:07;;;;;;;32.20;24.50;;;3.40;92.80;;;;;;5082402;28;20124;-46
2021/12/28 08:02:35;;;;;;;35.83;24.15;;;3.40;92.70;;;;;;5105387;28;20553;-45
2021/12/28 08:05:05;;;;;;;35.00;24.67;;;3.40;92.70;;;;;;5107998;28;20062;-46
2021/12/28 08:07:32;;;;;;;;;;;3.40;92.70;;;;;;5113484;28;20086;-48
2021/12/28 08:10:00;;;;;;;36.42;24.23;;;3.40;92.70;;;;;;5114451;28;19922;-50
2021/12/28 08:12:27;;;;;;;38.15;24.35;;;3.40;92.60;;;;;;5095541;28;20358;-48
2021/12/28 08:14:53;;;;;;;35.05;22.80;;;3.40;92.70;;;;;;5113253;28;20040;-48
2021/12/28 08:17:20;;;;;;;34.35;23.90;;;3.50;92.60;;;;;;5114390;28;20102;-45
2021/12/28 08:19:47;;;;;;;33.83;23.30;;;3.40;92.60;;;;;;5114491;28;20028;-46
2021/12/28 08:22:14;;;;;;;33.00;22.63;;;3.40;92.50;;;;;;5095404;28;20032;-47
2021/12/28 08:24:40;;;;;;;36.35;24.13;;;3.40;92.60;;;;;;5114573;28;20030;-46
2021/12/28 08:27:07;;;;;;;31.25;21.73;;;3.40;92.50;;;;;;5113198;28;20031;-44
2021/12/28 08:29:34;;;;;;;31.70;22.85;;;3.40;92.50;;;;;;5114418;28;20039;-46
2021/12/28 08:32:02;;;;;;;32.80;22.35;;;3.50;92.50;;;;;;5114212;28;20027;-47
2021/12/28 08:34:29;;;;;;;31.73;22.90;;;3.50;92.50;;;;;;5111846;28;20028;-46
2021/12/28 08:36:55;;;;;;;33.20;23.73;;;3.50;92.50;;;;;;5114566;28;20328;-48
2021/12/28 08:39:24;;;;;;;29.70;21.95;;;3.50;92.50;;;;;;5111945;28;20036;-48
2021/12/28 08:41:50;;;;;;;26.70;20.42;;;3.50;92.40;;;;;;5114007;28;20055;-47
2021/12/28 08:44:17;;;;;;;30.85;23.33;;;3.40;92.40;;;;;;5112231;28;20044;-44
2021/12/28 08:46:45;;;;;;;28.63;21.67;;;3.40;92.30;;;;;;5112621;28;20043;-46
2021/12/28 08:49:14;;;;;;;28.63;20.90;;;3.40;92.40;;;;;;5112911;28;21631;-48
2021/12/28 08:51:41;;;;;;;31.40;20.73;;;3.40;92.40;;;;;;5112793;28;20035;-49
2021/12/28 08:54:08;;;;;;;31.90;21.50;;;3.40;92.40;;;;;;5112413;28;20081;-47
2021/12/28 08:56:35;;;;;;;29.17;21.00;;;3.50;92.30;;;;;;5095770;28;20034;-50
2021/12/28 08:59:03;;;;;;;26.75;20.13;;;3.40;92.30;;;;;;5112256;28;20036;-48
2021/12/28 09:01:29;;;;;;;31.13;22.10;;;3.40;92.20;;;;;;5095353;28;20039;-46
2021/12/28 09:04:32;;;;;;;28.70;20.23;;;3.50;92.30;;;;;;5112731;28;20036;-46
2021/12/28 09:07:00;;;;;;;27.23;20.65;;;3.50;92.20;;;;;;5114573;27;20039;-47
2021/12/28 09:09:26;;;;;;;29.73;21.15;;;3.60;92.20;;;;;;5088244;28;20024;-49
2021/12/28 09:11:53;;;;;;;28.98;19.98;;;3.60;92.20;;;;;;5089763;28;20035;-45
2021/12/28 09:14:21;;;;;;;26.50;18.52;;;3.60;92.10;;;;;;5108940;28;20027;-47
2021/12/28 09:16:48;;;;;;;27.20;19.13;;;3.70;92.00;;;;;;5084960;28;20032;-52
2021/12/28 09:19:15;;;;;;;29.80;18.55;;;3.70;92.00;;;;;;5111403;28;20063;-47
2021/12/28 09:21:42;;;;;;;30.83;21.30;;;3.70;92.00;;;;;;5107626;28;20039;-47
2021/12/28 09:24:08;;;;;;;27.70;20.08;;;3.80;91.90;;;;;;5111498;28;20062;-48
2021/12/28 09:26:36;;;;;;;29.67;20.85;;;3.90;92.00;;;;;;5092765;28;20066;-46
2021/12/28 09:29:03;;;;;;;26.77;19.58;;;3.80;91.80;;;;;;5112105;28;20448;-49
2021/12/28 09:31:30;;;;;;;27.08;18.92;;;3.90;91.90;;;;;;5106761;28;20024;-48
2021/12/28 09:33:59;;;;;;;25.77;19.85;;;3.90;91.80;;;;;;5090662;28;20036;-49
2021/12/28 09:36:25;;;;;;;29.08;20.85;;;3.90;91.90;;;;;;5111557;28;20023;-45
2021/12/28 09:38:52;;;;;;;25.98;19.30;;;3.90;91.90;;;;;;5111069;28;20184;-45
2021/12/28 09:41:19;;;;;;;26.20;18.50;;;4.10;91.90;;;;;;5076588;28;20035;-44
2021/12/28 09:43:48;;;;;;;27.45;19.20;;;4.20;91.90;;;;;;5111148;28;20144;-44
2021/12/28 09:46:18;;;;;;;28.67;19.65;;;4.30;91.90;;;;;;5112995;28;20161;-45
2021/12/28 09:48:44;;;;;;;28.35;19.15;;;4.40;91.70;;;;;;5091658;28;20126;-44
2021/12/28 09:51:12;;;;;;;23.00;17.75;;;4.60;91.60;;;;;;5113218;28;20036;-44
2021/12/28 09:53:41;;;;;;;24.77;17.33;;;4.60;91.40;;;;;;5093862;28;20445;-46
2021/12/28 09:56:09;;;;;;;24.23;17.65;;;4.60;91.20;;;;;;5107814;28;20105;-46
2021/12/28 09:58:41;;;;;;;21.88;16.25;;;4.60;91.10;;;;;;5105421;28;20035;-44
2021/12/28 10:01:09;;;;;;;20.92;16.40;;;4.60;90.90;;;;;;5112051;28;20024;-45
2021/12/28 10:03:37;;;;;;;23.97;16.70;;;4.50;90.80;;;;;;5108831;28;20632;-45
2021/12/28 10:06:25;;;;;;;26.17;17.90;;;4.50;90.80;;;;;;5110414;28;20280;-45
2021/12/28 10:09:20;;;;;;;27.65;17.20;;;4.50;90.90;;;;;;5104215;28;20077;-48
2021/12/28 10:11:53;;;;;;;24.75;17.33;;;4.70;91.10;;;;;;5111544;28;20024;-46
2021/12/28 10:14:25;;;;;;;22.13;16.17;;;4.90;90.90;;;;;;5102933;28;20034;-46
2021/12/28 10:17:04;;;;;;;26.73;16.65;;;5.00;90.70;;;;;;5109982;28;20022;-43
2021/12/28 10:19:47;;;;;;;20.90;14.27;;;5.00;90.20;;;;;;5112378;28;20117;-47
2021/12/28 10:22:35;;;;;;;19.25;15.13;;;5.00;90.20;;;;;;5092497;28;20079;-46
2021/12/28 10:25:14;;;;;;;23.30;15.35;;;4.90;90.10;;;;;;5111975;28;20036;-48
2021/12/28 10:27:50;;;;;;;17.50;13.93;;;4.90;90.10;;;;;;5111841;28;20039;-47
2021/12/28 10:30:38;;;;;;;20.27;14.68;;;4.70;90.10;;;;;;5112048;28;20075;-45
2021/12/28 10:33:11;;;;;;;19.60;13.52;;;4.70;90.10;;;;;;5093725;28;20031;-44
2021/12/28 10:36:01;;;;;;;22.10;13.85;;;4.60;90.30;;;;;;5094113;28;20019;-48
2021/12/28 10:38:33;;;;;;;19.77;14.00;;;4.70;90.50;;;;;;5107597;28;20460;-47
2021/12/28 10:41:15;;;;;;;20.80;14.07;;;4.70;90.50;;;;;;5109393;28;20111;-44
2021/12/28 10:43:50;;;;;;;22.40;15.10;;;4.70;90.60;;;;;;5111452;28;20052;-44
2021/12/28 10:46:23;;;;;;;21.73;15.52;;;4.80;90.50;;;;;;5092964;28;20028;-43
2021/12/28 10:48:56;;;;;;;18.58;14.80;;;5.00;90.70;;;;;;5073385;28;20039;-43
2021/12/28 10:51:34;;;;;;;17.80;13.18;;;5.10;90.50;;;;;;5110875;28;20024;-47
2021/12/28 10:56:57;;;;;;;23.40;14.02;;;5.30;90.20;;;;;;5111694;28;20107;-44
2021/12/28 10:59:27;;;;;;;19.90;14.23;;;5.30;90.10;;;;;;5109521;28;20024;-43
2021/12/28 11:01:54;;;;;;;19.30;12.60;;;5.30;90.10;;;;;;5111344;28;20486;-46
2021/12/28 11:04:29;;;;;;;16.10;11.82;;;5.40;90.00;;;;;;5095156;28;20036;-43
2021/12/28 11:06:55;;;;;;;15.77;12.02;;;5.40;90.00;;;;;;5090252;28;20067;-45
2021/12/28 11:09:31;;;;;;;22.13;13.10;;;5.60;90.00;;;;;;5092937;28;20081;-48
2021/12/28 11:11:58;;;;;;;19.67;13.15;;;5.70;89.90;;;;;;5107455;28;20081;-47
2021/12/28 11:14:28;;;;;;;17.35;12.68;;;5.60;89.70;;;;;;5086228;28;20067;-44
2021/12/28 11:17:01;;;;;;;19.35;12.07;;;5.60;89.70;;;;;;5111931;28;20024;-48
2021/12/28 11:19:37;;;;;;;23.67;15.48;;;5.70;89.60;;;;;;5108533;28;20096;-44
2021/12/28 11:22:21;;;;;;;19.13;12.90;;;5.70;89.60;;;;;;5080273;28;20023;-46
2021/12/28 11:24:48;;;;;;;16.52;11.63;;;5.80;89.50;;;;;;5094870;28;20061;-44
2021/12/28 11:27:24;;;;;;;20.17;13.20;;;5.70;89.40;;;;;;5114746;28;20040;-50
2021/12/28 11:29:51;;;;;;;15.18;12.93;;;5.60;89.30;;;;;;5097436;28;20097;-43
2021/12/28 11:32:20;;;;;;;18.98;13.23;;;5.60;89.40;;;;;;5114368;28;20090;-45
2021/12/28 11:34:52;;;;;;;17.27;11.98;;;5.60;89.60;;;;;;5096744;28;20020;-45
2021/12/28 11:37:23;;;;;;;20.90;13.63;;;5.60;89.70;;;;;;5112605;28;20121;-43
2021/12/28 11:40:10;;;;;;;18.40;12.45;;;5.60;89.80;;;;;;5095351;28;20024;-44
2021/12/28 11:42:37;;;;;;;17.60;13.73;;;5.80;89.90;;;;;;5112939;28;20052;-49
2021/12/28 11:45:04;;;;;;;19.35;13.10;;;5.80;89.60;;;;;;5112810;28;20519;-44
2021/12/28 11:47:29;;;;;;;18.58;13.07;;;5.90;89.50;;;;;;5114783;28;20088;-45
2021/12/28 11:49:59;;;;;;;16.85;11.52;;;5.80;89.40;;;;;;5115039;28;20036;-46
2021/12/28 11:52:26;;;;;;;20.02;12.52;;;5.90;89.50;;;;;;5113331;28;20101;-48
2021/12/28 11:54:57;;;;;;;18.95;11.80;;;6.00;89.50;;;;;;5097747;28;20035;-44
2021/12/28 11:57:27;;;;;;;15.70;11.63;;;6.00;89.40;;;;;;5114591;28;20361;-47
2021/12/28 12:00:06;;;;;;;23.55;12.48;;;5.90;89.40;;;;;;5114945;28;20035;-48
2021/12/28 12:02:51;;;;;;;;;;;5.90;89.40;;;;;;5115575;27;20424;-45
2021/12/28 12:05:23;;;;;;;15.68;10.60;;;5.90;89.50;;;;;;5113973;28;19908;-45
2021/12/28 12:08:04;;;;;;;18.75;12.98;;;5.90;89.60;;;;;;5114208;28;20051;-46
2021/12/28 12:10:34;;;;;;;19.30;13.07;;;5.90;89.80;;;;;;5094921;28;20361;-44
2021/12/28 12:13:23;;;;;;;18.85;12.45;;;5.90;89.70;;;;;;5078947;28;20035;-46
2021/12/28 12:16:14;;;;;;;16.70;12.65;;;5.80;89.80;;;;;;5112329;28;20035;-43
2021/12/28 12:18:48;;;;;;;17.27;12.85;;;5.80;89.90;;;;;;5095371;28;20046;-45
2021/12/28 12:21:22;;;;;;;20.73;13.90;;;5.80;89.90;;;;;;5113348;28;20023;-44
2021/12/28 12:23:51;;;;;;;22.17;12.73;;;5.90;90.00;;;;;;5113574;28;20039;-48
2021/12/28 12:26:31;;;;;;;22.58;13.25;;;5.90;90.00;;;;;;5096600;28;20063;-45
2021/12/28 12:28:57;;;;;;;;;;;5.90;89.90;;;;;;5114889;28;20027;-45
2021/12/28 12:31:37;;;;;;;16.67;11.88;;;5.90;89.90;;;;;;5112628;28;19915;-46
2021/12/28 12:34:25;;;;;;;20.67;12.93;;;5.90;90.00;;;;;;5108797;28;20020;-45
2021/12/28 12:36:54;;;;;;;16.65;11.63;;;6.00;89.90;;;;;;5095222;28;20043;-47
2021/12/28 12:39:23;;;;;;;17.02;11.35;;;6.00;89.80;;;;;;5113989;28;20056;-49
2021/12/28 12:41:55;;;;;;;16.60;11.82;;;6.00;89.70;;;;;;5109538;28;20411;-46
2021/12/28 12:44:27;;;;;;;19.13;12.20;;;6.00;89.70;;;;;;5097086;28;20505;-46
2021/12/28 12:47:06;;;;;;;15.55;11.85;;;6.00;89.70;;;;;;5109864;28;20043;-45
2021/12/28 12:49:34;;;;;;;16.75;11.90;;;6.00;89.70;;;;;;5092711;28;20505;-45
2021/12/28 12:52:12;;;;;;;18.10;11.05;;;6.00;89.80;;;;;;5093053;28;20044;-50
2021/12/28 12:54:47;;;;;;;17.05;11.63;;;6.00;89.70;;;;;;5111894;28;20315;-46
2021/12/28 12:57:24;;;;;;;16.23;11.38;;;6.00;89.80;;;;;;5111623;28;20130;-50